SPHO/AYP METAR and TAF weather

Enter ICAO airport designator
Station Type Date Time Source
SPHO METAR 2021/07/26 16:00 UTC NOAA

SPHO 261600Z VRB02KT 9999 FEW040 18/M04 Q1030 RMK PP000


Station Type Date Time Source
SPHO Decoded METAR 2021/07/26 16:00 UTC NOAA

Ayacucho, Peru (SPHO) 13-08S 074-13W 2749M
Jul 26, 2021 - 12:00 PM EDT / 2021.07.26 1600 UTC
Wind: Variable at 2 MPH (2 KT):0
Visibility: greater than 7 mile(s):0
Sky conditions: mostly clear
Temperature: 64 F (18 C)
Dew Point: 24 F (-4 C)
Relative Humidity: 22%
Pressure (altimeter): 30.42 in. Hg (1030 hPa)
ob: SPHO 261600Z VRB02KT 9999 FEW040 18/M04 Q1030 RMK PP000
cycle: 16

Station Type Date Time Source
SPHO TAF 2021/07/26 12:33 UTC NOAA

TAF SPHO 261100Z 2612/2712 14005KT CAVOK TX23/2619Z TN08/2711Z

Example: see airport list